sensor_id;sensor_type;location;lat;lon;timestamp;temperature;humidity
76787;DHT22;65739;51.482;5.702;2022-12-18T00:00:23;-5.50;99.90
76787;DHT22;65739;51.482;5.702;2022-12-18T00:02:52;-5.50;99.90
76787;DHT22;65739;51.482;5.702;2022-12-18T00:05:22;-5.50;99.90
76787;DHT22;65739;51.482;5.702;2022-12-18T00:07:50;-5.60;99.90
76787;DHT22;65739;51.482;5.702;2022-12-18T00:10:17;-5.60;99.90
76787;DHT22;65739;51.482;5.702;2022-12-18T00:12:46;-5.60;99.90
76787;DHT22;65739;51.482;5.702;2022-12-18T00:15:15;-5.70;99.90
76787;DHT22;65739;51.482;5.702;2022-12-18T00:17:44;-5.80;99.90
76787;DHT22;65739;51.482;5.702;2022-12-18T00:20:11;-5.80;99.90
76787;DHT22;65739;51.482;5.702;2022-12-18T00:22:40;-5.80;99.90
76787;DHT22;65739;51.482;5.702;2022-12-18T00:25:12;-5.80;99.90
76787;DHT22;65739;51.482;5.702;2022-12-18T00:27:41;-5.80;99.90
76787;DHT22;65739;51.482;5.702;2022-12-18T00:30:11;-5.90;99.90
76787;DHT22;65739;51.482;5.702;2022-12-18T00:32:43;-5.80;99.90
76787;DHT22;65739;51.482;5.702;2022-12-18T00:35:12;-5.90;99.90
76787;DHT22;65739;51.482;5.702;2022-12-18T00:37:41;-5.90;99.90
76787;DHT22;65739;51.482;5.702;2022-12-18T00:40:10;-5.90;99.90
76787;DHT22;65739;51.482;5.702;2022-12-18T00:42:40;-6.00;99.90
76787;DHT22;65739;51.482;5.702;2022-12-18T00:45:28;-5.90;99.90
76787;DHT22;65739;51.482;5.702;2022-12-18T00:47:56;-5.90;99.90
76787;DHT22;65739;51.482;5.702;2022-12-18T00:50:25;-5.90;99.90
76787;DHT22;65739;51.482;5.702;2022-12-18T00:52:54;-6.00;99.90
76787;DHT22;65739;51.482;5.702;2022-12-18T00:55:23;-5.90;99.90
76787;DHT22;65739;51.482;5.702;2022-12-18T00:57:52;-5.90;99.90
76787;DHT22;65739;51.482;5.702;2022-12-18T01:00:23;-6.00;99.90
76787;DHT22;65739;51.482;5.702;2022-12-18T01:02:53;-6.00;99.90
76787;DHT22;65739;51.482;5.702;2022-12-18T01:05:22;-6.00;99.90
76787;DHT22;65739;51.482;5.702;2022-12-18T01:07:51;-6.00;99.90
76787;DHT22;65739;51.482;5.702;2022-12-18T01:10:21;-6.10;99.90
76787;DHT22;65739;51.482;5.702;2022-12-18T01:12:50;-6.10;99.90
76787;DHT22;65739;51.482;5.702;2022-12-18T01:15:21;-6.20;99.90
76787;DHT22;65739;51.482;5.702;2022-12-18T01:17:52;-6.20;99.90
76787;DHT22;65739;51.482;5.702;2022-12-18T01:20:21;-6.10;99.90
76787;DHT22;65739;51.482;5.702;2022-12-18T01:22:50;-6.20;99.90
76787;DHT22;65739;51.482;5.702;2022-12-18T01:25:20;-6.20;99.90
76787;DHT22;65739;51.482;5.702;2022-12-18T01:27:49;-6.30;99.90
76787;DHT22;65739;51.482;5.702;2022-12-18T01:30:18;-6.30;99.90
76787;DHT22;65739;51.482;5.702;2022-12-18T01:32:44;-6.30;99.90
76787;DHT22;65739;51.482;5.702;2022-12-18T01:35:14;-6.40;99.90
76787;DHT22;65739;51.482;5.702;2022-12-18T01:37:43;-6.40;99.90
76787;DHT22;65739;51.482;5.702;2022-12-18T01:40:12;-6.40;99.90
76787;DHT22;65739;51.482;5.702;2022-12-18T01:42:41;-6.40;99.90
76787;DHT22;65739;51.482;5.702;2022-12-18T01:47:59;-6.40;99.90
76787;DHT22;65739;51.482;5.702;2022-12-18T01:50:41;-6.50;99.90
76787;DHT22;65739;51.482;5.702;2022-12-18T01:53:17;-6.50;99.90
76787;DHT22;65739;51.482;5.702;2022-12-18T01:55:51;-6.50;99.90
76787;DHT22;65739;51.482;5.702;2022-12-18T01:58:19;-6.50;99.90
76787;DHT22;65739;51.482;5.702;2022-12-18T02:00:48;-6.60;99.90
76787;DHT22;65739;51.482;5.702;2022-12-18T02:03:17;-6.60;99.90
76787;DHT22;65739;51.482;5.702;2022-12-18T02:05:57;-6.60;99.90
76787;DHT22;65739;51.482;5.702;2022-12-18T02:08:43;-6.60;99.90
76787;DHT22;65739;51.482;5.702;2022-12-18T02:17:04;-6.70;99.90
76787;DHT22;65739;51.482;5.702;2022-12-18T02:22:44;-6.60;99.90
76787;DHT22;65739;51.482;5.702;2022-12-18T02:25:43;-6.70;99.90
76787;DHT22;65739;51.482;5.702;2022-12-18T02:28:15;-6.60;99.90
76787;DHT22;65739;51.482;5.702;2022-12-18T02:30:47;-6.70;99.90
76787;DHT22;65739;51.482;5.702;2022-12-18T02:33:19;-6.70;99.90
76787;DHT22;65739;51.482;5.702;2022-12-18T02:35:54;-6.70;99.90
76787;DHT22;65739;51.482;5.702;2022-12-18T02:38:25;-6.70;99.90
76787;DHT22;65739;51.482;5.702;2022-12-18T02:40:54;-6.70;99.90
76787;DHT22;65739;51.482;5.702;2022-12-18T02:43:23;-6.70;99.90
76787;DHT22;65739;51.482;5.702;2022-12-18T02:45:55;-6.70;99.90
76787;DHT22;65739;51.482;5.702;2022-12-18T02:48:33;-6.70;99.90
76787;DHT22;65739;51.482;5.702;2022-12-18T02:51:04;-6.70;99.90
76787;DHT22;65739;51.482;5.702;2022-12-18T02:53:58;-6.70;99.90
76787;DHT22;65739;51.482;5.702;2022-12-18T02:56:41;-6.70;99.90
76787;DHT22;65739;51.482;5.702;2022-12-18T02:59:16;-6.70;99.90
76787;DHT22;65739;51.482;5.702;2022-12-18T03:02:24;-6.70;99.90
76787;DHT22;65739;51.482;5.702;2022-12-18T03:05:07;-6.60;99.90
76787;DHT22;65739;51.482;5.702;2022-12-18T03:07:44;-6.60;99.90
76787;DHT22;65739;51.482;5.702;2022-12-18T03:10:18;-6.60;99.90
76787;DHT22;65739;51.482;5.702;2022-12-18T03:12:51;-6.60;99.90
76787;DHT22;65739;51.482;5.702;2022-12-18T03:15:26;-6.60;99.90
76787;DHT22;65739;51.482;5.702;2022-12-18T03:18:04;-6.50;99.90
76787;DHT22;65739;51.482;5.702;2022-12-18T03:20:35;-6.50;99.90
76787;DHT22;65739;51.482;5.702;2022-12-18T03:23:11;-6.50;99.90
76787;DHT22;65739;51.482;5.702;2022-12-18T03:25:42;-6.50;99.90
76787;DHT22;65739;51.482;5.702;2022-12-18T03:28:15;-6.50;99.90
76787;DHT22;65739;51.482;5.702;2022-12-18T03:30:47;-6.40;99.90
76787;DHT22;65739;51.482;5.702;2022-12-18T03:33:29;-6.30;99.90
76787;DHT22;65739;51.482;5.702;2022-12-18T03:36:00;-6.30;99.90
76787;DHT22;65739;51.482;5.702;2022-12-18T03:38:29;-6.20;99.90
76787;DHT22;65739;51.482;5.702;2022-12-18T03:46:28;-6.20;99.90
76787;DHT22;65739;51.482;5.702;2022-12-18T03:49:11;-6.20;99.90
76787;DHT22;65739;51.482;5.702;2022-12-18T03:52:03;-6.20;99.90
76787;DHT22;65739;51.482;5.702;2022-12-18T03:54:34;-6.10;99.90
76787;DHT22;65739;51.482;5.702;2022-12-18T03:57:06;-6.10;99.90
76787;DHT22;65739;51.482;5.702;2022-12-18T03:59:40;-6.10;99.90
76787;DHT22;65739;51.482;5.702;2022-12-18T04:02:09;-6.00;99.90
76787;DHT22;65739;51.482;5.702;2022-12-18T04:04:39;-6.00;99.90
76787;DHT22;65739;51.482;5.702;2022-12-18T04:07:09;-6.00;99.90
76787;DHT22;65739;51.482;5.702;2022-12-18T04:09:39;-6.00;99.90
76787;DHT22;65739;51.482;5.702;2022-12-18T04:12:18;-6.00;99.90
76787;DHT22;65739;51.482;5.702;2022-12-18T04:14:46;-6.00;99.90
76787;DHT22;65739;51.482;5.702;2022-12-18T04:17:17;-6.00;99.90
76787;DHT22;65739;51.482;5.702;2022-12-18T04:19:47;-6.00;99.90
76787;DHT22;65739;51.482;5.702;2022-12-18T04:22:16;-6.00;99.90
76787;DHT22;65739;51.482;5.702;2022-12-18T04:24:45;-6.00;99.90
76787;DHT22;65739;51.482;5.702;2022-12-18T04:27:13;-6.00;99.90
76787;DHT22;65739;51.482;5.702;2022-12-18T04:29:43;-6.00;99.90
76787;DHT22;65739;51.482;5.702;2022-12-18T04:32:12;-6.00;99.90
76787;DHT22;65739;51.482;5.702;2022-12-18T04:34:40;-6.10;99.90
76787;DHT22;65739;51.482;5.702;2022-12-18T04:37:10;-6.10;99.90
76787;DHT22;65739;51.482;5.702;2022-12-18T04:39:42;-6.00;99.90
76787;DHT22;65739;51.482;5.702;2022-12-18T04:42:11;-6.00;99.90
76787;DHT22;65739;51.482;5.702;2022-12-18T04:44:40;-6.00;99.90
76787;DHT22;65739;51.482;5.702;2022-12-18T04:47:09;-6.00;99.90
76787;DHT22;65739;51.482;5.702;2022-12-18T04:49:38;-6.00;99.90
76787;DHT22;65739;51.482;5.702;2022-12-18T04:52:07;-6.00;99.90
76787;DHT22;65739;51.482;5.702;2022-12-18T04:54:37;-6.00;99.90
76787;DHT22;65739;51.482;5.702;2022-12-18T04:57:10;-6.00;99.90
76787;DHT22;65739;51.482;5.702;2022-12-18T04:59:39;-5.90;99.90
76787;DHT22;65739;51.482;5.702;2022-12-18T05:02:08;-5.80;99.90
76787;DHT22;65739;51.482;5.702;2022-12-18T05:04:38;-5.80;99.90
76787;DHT22;65739;51.482;5.702;2022-12-18T05:07:06;-5.90;99.90
76787;DHT22;65739;51.482;5.702;2022-12-18T05:09:35;-6.00;99.90
76787;DHT22;65739;51.482;5.702;2022-12-18T05:12:04;-6.00;99.90
76787;DHT22;65739;51.482;5.702;2022-12-18T05:14:33;-6.10;99.90
76787;DHT22;65739;51.482;5.702;2022-12-18T05:17:03;-6.10;99.90
76787;DHT22;65739;51.482;5.702;2022-12-18T05:19:32;-6.20;99.90
76787;DHT22;65739;51.482;5.702;2022-12-18T05:22:04;-6.20;99.90
76787;DHT22;65739;51.482;5.702;2022-12-18T05:24:34;-6.20;99.90
76787;DHT22;65739;51.482;5.702;2022-12-18T05:27:03;-6.20;99.90
76787;DHT22;65739;51.482;5.702;2022-12-18T05:29:32;-6.30;99.90
76787;DHT22;65739;51.482;5.702;2022-12-18T05:32:00;-6.30;99.90
76787;DHT22;65739;51.482;5.702;2022-12-18T05:34:29;-6.30;99.90
76787;DHT22;65739;51.482;5.702;2022-12-18T05:36:59;-6.30;99.90
76787;DHT22;65739;51.482;5.702;2022-12-18T05:39:28;-6.30;99.90
76787;DHT22;65739;51.482;5.702;2022-12-18T05:41:56;-6.30;99.90
76787;DHT22;65739;51.482;5.702;2022-12-18T05:44:26;-6.30;99.90
76787;DHT22;65739;51.482;5.702;2022-12-18T05:46:55;-6.30;99.90
76787;DHT22;65739;51.482;5.702;2022-12-18T05:49:26;-6.30;99.90
76787;DHT22;65739;51.482;5.702;2022-12-18T05:51:55;-6.20;99.90
76787;DHT22;65739;51.482;5.702;2022-12-18T05:54:22;-6.20;99.90
76787;DHT22;65739;51.482;5.702;2022-12-18T05:56:53;-6.10;99.90
76787;DHT22;65739;51.482;5.702;2022-12-18T05:59:21;-6.10;99.90
76787;DHT22;65739;51.482;5.702;2022-12-18T06:01:50;-6.10;99.90
76787;DHT22;65739;51.482;5.702;2022-12-18T06:04:19;-6.10;99.90
76787;DHT22;65739;51.482;5.702;2022-12-18T06:06:48;-6.10;99.90
76787;DHT22;65739;51.482;5.702;2022-12-18T06:09:19;-6.10;99.90
76787;DHT22;65739;51.482;5.702;2022-12-18T06:11:49;-6.00;99.90
76787;DHT22;65739;51.482;5.702;2022-12-18T06:14:19;-6.00;99.90
76787;DHT22;65739;51.482;5.702;2022-12-18T06:16:50;-5.90;99.90
76787;DHT22;65739;51.482;5.702;2022-12-18T06:19:20;-5.90;99.90
76787;DHT22;65739;51.482;5.702;2022-12-18T06:21:48;-5.90;99.90
76787;DHT22;65739;51.482;5.702;2022-12-18T06:24:20;-5.90;99.90
76787;DHT22;65739;51.482;5.702;2022-12-18T06:26:49;-5.90;99.90
76787;DHT22;65739;51.482;5.702;2022-12-18T06:29:19;-5.90;99.90
76787;DHT22;65739;51.482;5.702;2022-12-18T06:31:48;-5.90;99.90
76787;DHT22;65739;51.482;5.702;2022-12-18T06:34:17;-5.90;99.90
76787;DHT22;65739;51.482;5.702;2022-12-18T06:36:46;-5.90;99.90
76787;DHT22;65739;51.482;5.702;2022-12-18T06:39:15;-5.90;99.90
76787;DHT22;65739;51.482;5.702;2022-12-18T06:41:45;-5.90;99.90
76787;DHT22;65739;51.482;5.702;2022-12-18T06:44:14;-5.90;99.90
76787;DHT22;65739;51.482;5.702;2022-12-18T06:46:43;-5.90;99.90
76787;DHT22;65739;51.482;5.702;2022-12-18T06:49:11;-5.90;99.90
76787;DHT22;65739;51.482;5.702;2022-12-18T06:51:41;-6.00;99.90
76787;DHT22;65739;51.482;5.702;2022-12-18T06:54:08;-6.00;99.90
76787;DHT22;65739;51.482;5.702;2022-12-18T06:56:37;-6.00;99.90
76787;DHT22;65739;51.482;5.702;2022-12-18T06:59:06;-6.00;99.90
76787;DHT22;65739;51.482;5.702;2022-12-18T07:01:35;-6.00;99.90
76787;DHT22;65739;51.482;5.702;2022-12-18T07:04:04;-6.00;99.90
76787;DHT22;65739;51.482;5.702;2022-12-18T07:06:33;-6.00;99.90
76787;DHT22;65739;51.482;5.702;2022-12-18T07:09:04;-6.00;99.90
76787;DHT22;65739;51.482;5.702;2022-12-18T07:11:34;-6.10;99.90
76787;DHT22;65739;51.482;5.702;2022-12-18T07:14:05;-6.10;99.90
76787;DHT22;65739;51.482;5.702;2022-12-18T07:16:34;-6.20;99.90
76787;DHT22;65739;51.482;5.702;2022-12-18T07:19:01;-6.20;99.90
76787;DHT22;65739;51.482;5.702;2022-12-18T07:21:30;-6.30;99.90
76787;DHT22;65739;51.482;5.702;2022-12-18T07:24:01;-6.30;99.90
76787;DHT22;65739;51.482;5.702;2022-12-18T07:26:30;-6.30;99.90
76787;DHT22;65739;51.482;5.702;2022-12-18T07:28:59;-6.30;99.90
76787;DHT22;65739;51.482;5.702;2022-12-18T07:31:28;-6.30;99.90
76787;DHT22;65739;51.482;5.702;2022-12-18T07:33:57;-6.40;99.90
76787;DHT22;65739;51.482;5.702;2022-12-18T07:36:24;-6.40;99.90
76787;DHT22;65739;51.482;5.702;2022-12-18T07:38:53;-6.30;99.90
76787;DHT22;65739;51.482;5.702;2022-12-18T07:41:23;-6.20;99.90
76787;DHT22;65739;51.482;5.702;2022-12-18T07:43:52;-6.10;99.90
76787;DHT22;65739;51.482;5.702;2022-12-18T07:46:21;-6.10;99.90
76787;DHT22;65739;51.482;5.702;2022-12-18T07:48:50;-6.20;99.90
76787;DHT22;65739;51.482;5.702;2022-12-18T07:51:19;-6.20;99.90
76787;DHT22;65739;51.482;5.702;2022-12-18T07:53:48;-6.10;99.90
76787;DHT22;65739;51.482;5.702;2022-12-18T07:56:20;-6.00;99.90
76787;DHT22;65739;51.482;5.702;2022-12-18T07:58:48;-5.90;99.90
76787;DHT22;65739;51.482;5.702;2022-12-18T08:01:16;-5.90;99.90
76787;DHT22;65739;51.482;5.702;2022-12-18T08:03:45;-5.80;99.90
76787;DHT22;65739;51.482;5.702;2022-12-18T08:06:14;-5.70;99.90
76787;DHT22;65739;51.482;5.702;2022-12-18T08:08:43;-5.70;99.90
76787;DHT22;65739;51.482;5.702;2022-12-18T08:11:12;-5.60;99.90
76787;DHT22;65739;51.482;5.702;2022-12-18T08:13:42;-5.50;99.90
76787;DHT22;65739;51.482;5.702;2022-12-18T08:16:10;-5.40;99.90
76787;DHT22;65739;51.482;5.702;2022-12-18T08:18:41;-5.30;99.90
76787;DHT22;65739;51.482;5.702;2022-12-18T08:21:11;-5.20;99.90
76787;DHT22;65739;51.482;5.702;2022-12-18T08:23:41;-5.10;99.90
76787;DHT22;65739;51.482;5.702;2022-12-18T08:26:24;-5.00;99.90
76787;DHT22;65739;51.482;5.702;2022-12-18T08:28:59;-4.90;99.90
76787;DHT22;65739;51.482;5.702;2022-12-18T08:31:32;-4.80;99.90
76787;DHT22;65739;51.482;5.702;2022-12-18T08:34:19;-4.80;99.90
76787;DHT22;65739;51.482;5.702;2022-12-18T08:37:01;-4.60;99.90
76787;DHT22;65739;51.482;5.702;2022-12-18T08:39:28;-4.60;99.90
76787;DHT22;65739;51.482;5.702;2022-12-18T08:41:56;-4.50;99.90
76787;DHT22;65739;51.482;5.702;2022-12-18T08:44:40;-4.50;99.90
76787;DHT22;65739;51.482;5.702;2022-12-18T08:47:10;-4.40;99.90
76787;DHT22;65739;51.482;5.702;2022-12-18T08:49:39;-4.40;99.90
76787;DHT22;65739;51.482;5.702;2022-12-18T08:52:08;-4.30;99.90
76787;DHT22;65739;51.482;5.702;2022-12-18T08:54:40;-4.30;99.90
76787;DHT22;65739;51.482;5.702;2022-12-18T08:57:09;-4.20;99.90
76787;DHT22;65739;51.482;5.702;2022-12-18T08:59:38;-4.20;99.90
76787;DHT22;65739;51.482;5.702;2022-12-18T09:02:10;-4.10;99.90
76787;DHT22;65739;51.482;5.702;2022-12-18T09:04:36;-4.00;99.90
76787;DHT22;65739;51.482;5.702;2022-12-18T09:07:07;-3.90;99.90
76787;DHT22;65739;51.482;5.702;2022-12-18T09:09:38;-3.80;99.90
76787;DHT22;65739;51.482;5.702;2022-12-18T09:12:07;-3.70;99.90
76787;DHT22;65739;51.482;5.702;2022-12-18T09:14:39;-3.60;99.90
76787;DHT22;65739;51.482;5.702;2022-12-18T09:17:09;-3.50;99.90
76787;DHT22;65739;51.482;5.702;2022-12-18T09:19:39;-3.50;99.90
76787;DHT22;65739;51.482;5.702;2022-12-18T09:22:07;-3.40;99.90
76787;DHT22;65739;51.482;5.702;2022-12-18T09:24:37;-3.30;99.90
76787;DHT22;65739;51.482;5.702;2022-12-18T09:27:08;-3.20;99.90
76787;DHT22;65739;51.482;5.702;2022-12-18T09:29:38;-3.20;99.90
76787;DHT22;65739;51.482;5.702;2022-12-18T09:32:09;-3.20;99.90
76787;DHT22;65739;51.482;5.702;2022-12-18T09:34:36;-3.10;99.90
76787;DHT22;65739;51.482;5.702;2022-12-18T09:37:05;-3.00;99.90
76787;DHT22;65739;51.482;5.702;2022-12-18T09:39:36;-3.00;99.90
76787;DHT22;65739;51.482;5.702;2022-12-18T09:42:03;-3.00;99.90
76787;DHT22;65739;51.482;5.702;2022-12-18T09:44:52;-2.90;99.90
76787;DHT22;65739;51.482;5.702;2022-12-18T09:47:33;-2.80;99.90
76787;DHT22;65739;51.482;5.702;2022-12-18T09:50:29;-2.80;99.90
76787;DHT22;65739;51.482;5.702;2022-12-18T09:53:15;-2.70;99.90
76787;DHT22;65739;51.482;5.702;2022-12-18T09:55:56;-2.60;99.90
76787;DHT22;65739;51.482;5.702;2022-12-18T09:58:39;-2.60;99.90
76787;DHT22;65739;51.482;5.702;2022-12-18T10:01:27;-2.50;99.90
76787;DHT22;65739;51.482;5.702;2022-12-18T10:04:04;-2.40;99.90
76787;DHT22;65739;51.482;5.702;2022-12-18T10:09:29;-2.30;99.90
76787;DHT22;65739;51.482;5.702;2022-12-18T10:20:54;-1.90;99.90
76787;DHT22;65739;51.482;5.702;2022-12-18T10:24:03;-1.90;99.90
76787;DHT22;65739;51.482;5.702;2022-12-18T10:26:53;-1.80;99.90
76787;DHT22;65739;51.482;5.702;2022-12-18T10:29:30;-1.70;99.90
76787;DHT22;65739;51.482;5.702;2022-12-18T10:32:09;-1.60;99.90
76787;DHT22;65739;51.482;5.702;2022-12-18T10:34:50;-1.50;99.90
76787;DHT22;65739;51.482;5.702;2022-12-18T10:37:32;-1.60;99.90
76787;DHT22;65739;51.482;5.702;2022-12-18T10:40:14;-1.50;99.90
76787;DHT22;65739;51.482;5.702;2022-12-18T10:43:02;-1.40;99.90
76787;DHT22;65739;51.482;5.702;2022-12-18T10:48:53;-1.30;99.90
76787;DHT22;65739;51.482;5.702;2022-12-18T10:51:34;-1.20;99.90
76787;DHT22;65739;51.482;5.702;2022-12-18T10:54:23;-1.10;99.90
76787;DHT22;65739;51.482;5.702;2022-12-18T10:57:15;-1.00;99.90
76787;DHT22;65739;51.482;5.702;2022-12-18T10:59:59;-1.00;99.90
76787;DHT22;65739;51.482;5.702;2022-12-18T11:02:37;-0.90;99.90
76787;DHT22;65739;51.482;5.702;2022-12-18T11:05:32;-0.80;99.90
76787;DHT22;65739;51.482;5.702;2022-12-18T11:08:11;-0.80;99.90
76787;DHT22;65739;51.482;5.702;2022-12-18T11:14:18;-0.80;99.90
76787;DHT22;65739;51.482;5.702;2022-12-18T11:17:33;-0.90;99.90
76787;DHT22;65739;51.482;5.702;2022-12-18T11:20:31;-0.80;99.90
76787;DHT22;65739;51.482;5.702;2022-12-18T11:23:23;-0.90;99.90
76787;DHT22;65739;51.482;5.702;2022-12-18T11:26:13;-0.80;99.90
76787;DHT22;65739;51.482;5.702;2022-12-18T11:29:23;-0.80;99.90
76787;DHT22;65739;51.482;5.702;2022-12-18T11:32:31;-0.80;99.90
76787;DHT22;65739;51.482;5.702;2022-12-18T11:35:20;-0.80;99.90
76787;DHT22;65739;51.482;5.702;2022-12-18T11:38:20;-0.70;99.90
76787;DHT22;65739;51.482;5.702;2022-12-18T11:44:40;-0.60;99.90
76787;DHT22;65739;51.482;5.702;2022-12-18T11:53:18;-0.50;99.90
76787;DHT22;65739;51.482;5.702;2022-12-18T12:05:20;-0.40;99.90
76787;DHT22;65739;51.482;5.702;2022-12-18T12:08:02;-0.30;99.90
76787;DHT22;65739;51.482;5.702;2022-12-18T12:24:14;-0.20;99.90
76787;DHT22;65739;51.482;5.702;2022-12-18T12:29:32;-0.20;99.90
76787;DHT22;65739;51.482;5.702;2022-12-18T12:35:12;-0.10;99.90
76787;DHT22;65739;51.482;5.702;2022-12-18T12:40:44;-0.10;99.90
76787;DHT22;65739;51.482;5.702;2022-12-18T12:46:12;0.00;99.90
76787;DHT22;65739;51.482;5.702;2022-12-18T12:48:48;0.00;99.90
76787;DHT22;65739;51.482;5.702;2022-12-18T12:51:24;0.00;99.90
76787;DHT22;65739;51.482;5.702;2022-12-18T12:53:51;0.00;99.90
76787;DHT22;65739;51.482;5.702;2022-12-18T12:56:20;0.00;99.90
76787;DHT22;65739;51.482;5.702;2022-12-18T12:58:55;0.00;99.90
76787;DHT22;65739;51.482;5.702;2022-12-18T13:01:59;0.10;99.90
76787;DHT22;65739;51.482;5.702;2022-12-18T13:04:47;0.10;99.90
76787;DHT22;65739;51.482;5.702;2022-12-18T13:13:05;0.10;99.90
76787;DHT22;65739;51.482;5.702;2022-12-18T13:20:46;0.10;99.90
76787;DHT22;65739;51.482;5.702;2022-12-18T13:34:18;0.10;99.90
76787;DHT22;65739;51.482;5.702;2022-12-18T13:36:45;0.00;99.90
76787;DHT22;65739;51.482;5.702;2022-12-18T13:39:32;0.00;99.90
76787;DHT22;65739;51.482;5.702;2022-12-18T13:44:35;0.00;99.90
76787;DHT22;65739;51.482;5.702;2022-12-18T13:47:03;0.00;99.90
76787;DHT22;65739;51.482;5.702;2022-12-18T13:51:58;0.00;99.90
76787;DHT22;65739;51.482;5.702;2022-12-18T13:54:35;0.00;99.90
76787;DHT22;65739;51.482;5.702;2022-12-18T13:57:02;0.00;99.90
76787;DHT22;65739;51.482;5.702;2022-12-18T13:59:37;0.00;99.90
76787;DHT22;65739;51.482;5.702;2022-12-18T14:02:29;0.00;99.90
76787;DHT22;65739;51.482;5.702;2022-12-18T14:04:55;0.10;99.90
76787;DHT22;65739;51.482;5.702;2022-12-18T14:07:23;0.10;99.90
76787;DHT22;65739;51.482;5.702;2022-12-18T14:09:52;0.10;99.90
76787;DHT22;65739;51.482;5.702;2022-12-18T14:12:25;0.10;99.90
76787;DHT22;65739;51.482;5.702;2022-12-18T14:17:47;0.10;99.90
76787;DHT22;65739;51.482;5.702;2022-12-18T14:20:15;0.10;99.90
76787;DHT22;65739;51.482;5.702;2022-12-18T14:22:47;0.10;99.90
76787;DHT22;65739;51.482;5.702;2022-12-18T14:27:49;0.10;99.90
76787;DHT22;65739;51.482;5.702;2022-12-18T14:30:25;0.10;99.90
76787;DHT22;65739;51.482;5.702;2022-12-18T14:33:05;0.10;99.90
76787;DHT22;65739;51.482;5.702;2022-12-18T14:35:33;0.10;99.90
76787;DHT22;65739;51.482;5.702;2022-12-18T14:40:41;0.00;99.90
76787;DHT22;65739;51.482;5.702;2022-12-18T14:43:10;0.00;99.90
76787;DHT22;65739;51.482;5.702;2022-12-18T14:45:44;0.10;99.90
76787;DHT22;65739;51.482;5.702;2022-12-18T14:50:37;0.00;99.90
76787;DHT22;65739;51.482;5.702;2022-12-18T14:53:03;0.00;99.90
76787;DHT22;65739;51.482;5.702;2022-12-18T14:55:32;0.00;99.90
76787;DHT22;65739;51.482;5.702;2022-12-18T14:57:58;0.00;99.90
76787;DHT22;65739;51.482;5.702;2022-12-18T15:00:25;0.00;99.90
76787;DHT22;65739;51.482;5.702;2022-12-18T15:02:54;0.00;99.90
76787;DHT22;65739;51.482;5.702;2022-12-18T15:07:52;-0.10;99.90
76787;DHT22;65739;51.482;5.702;2022-12-18T15:10:21;0.00;99.90
76787;DHT22;65739;51.482;5.702;2022-12-18T15:13:08;-0.10;99.90
76787;DHT22;65739;51.482;5.702;2022-12-18T15:20:31;-0.10;99.90
76787;DHT22;65739;51.482;5.702;2022-12-18T15:22:58;-0.10;99.90
76787;DHT22;65739;51.482;5.702;2022-12-18T15:25:36;-0.10;99.90
76787;DHT22;65739;51.482;5.702;2022-12-18T15:28:03;-0.10;99.90
76787;DHT22;65739;51.482;5.702;2022-12-18T15:30:29;-0.10;99.90
76787;DHT22;65739;51.482;5.702;2022-12-18T15:33:16;-0.10;99.90
76787;DHT22;65739;51.482;5.702;2022-12-18T15:35:43;-0.10;99.90
76787;DHT22;65739;51.482;5.702;2022-12-18T15:38:09;-0.10;99.90
76787;DHT22;65739;51.482;5.702;2022-12-18T15:40:34;-0.10;99.90
76787;DHT22;65739;51.482;5.702;2022-12-18T15:43:00;-0.10;99.90
76787;DHT22;65739;51.482;5.702;2022-12-18T15:45:44;-0.10;99.90
76787;DHT22;65739;51.482;5.702;2022-12-18T15:48:23;-0.10;99.90
76787;DHT22;65739;51.482;5.702;2022-12-18T15:50:52;-0.10;99.90
76787;DHT22;65739;51.482;5.702;2022-12-18T15:53:21;-0.10;99.90
76787;DHT22;65739;51.482;5.702;2022-12-18T15:55:46;-0.10;99.90
76787;DHT22;65739;51.482;5.702;2022-12-18T15:58:31;-0.10;99.90
76787;DHT22;65739;51.482;5.702;2022-12-18T16:00:58;-0.10;99.90
76787;DHT22;65739;51.482;5.702;2022-12-18T16:03:27;-0.10;99.90
76787;DHT22;65739;51.482;5.702;2022-12-18T16:05:53;-0.10;99.90
76787;DHT22;65739;51.482;5.702;2022-12-18T16:08:18;-0.10;99.90
76787;DHT22;65739;51.482;5.702;2022-12-18T16:10:44;-0.10;99.90
76787;DHT22;65739;51.482;5.702;2022-12-18T16:13:12;-0.10;99.90
76787;DHT22;65739;51.482;5.702;2022-12-18T16:15:38;-0.10;99.90
76787;DHT22;65739;51.482;5.702;2022-12-18T16:18:03;-0.10;99.90
76787;DHT22;65739;51.482;5.702;2022-12-18T16:20:29;-0.10;99.90
76787;DHT22;65739;51.482;5.702;2022-12-18T16:22:55;-0.10;99.90
76787;DHT22;65739;51.482;5.702;2022-12-18T16:25:21;-0.10;99.90
76787;DHT22;65739;51.482;5.702;2022-12-18T16:27:48;-0.10;99.90
76787;DHT22;65739;51.482;5.702;2022-12-18T16:30:19;-0.10;99.90
76787;DHT22;65739;51.482;5.702;2022-12-18T16:32:45;-0.10;99.90
76787;DHT22;65739;51.482;5.702;2022-12-18T16:35:12;-0.10;99.90
76787;DHT22;65739;51.482;5.702;2022-12-18T16:37:39;-0.10;99.90
76787;DHT22;65739;51.482;5.702;2022-12-18T16:40:10;-0.10;99.90
76787;DHT22;65739;51.482;5.702;2022-12-18T16:42:40;-0.10;99.90
76787;DHT22;65739;51.482;5.702;2022-12-18T16:45:09;-0.10;99.90
76787;DHT22;65739;51.482;5.702;2022-12-18T16:47:35;-0.10;99.90
76787;DHT22;65739;51.482;5.702;2022-12-18T16:50:01;0.00;99.90
76787;DHT22;65739;51.482;5.702;2022-12-18T16:52:26;-0.10;99.90
76787;DHT22;65739;51.482;5.702;2022-12-18T16:54:52;-0.10;99.90
76787;DHT22;65739;51.482;5.702;2022-12-18T16:57:20;-0.10;99.90
76787;DHT22;65739;51.482;5.702;2022-12-18T16:59:46;-0.10;99.90
76787;DHT22;65739;51.482;5.702;2022-12-18T17:02:17;-0.10;99.90
76787;DHT22;65739;51.482;5.702;2022-12-18T17:04:43;-0.10;99.90
76787;DHT22;65739;51.482;5.702;2022-12-18T17:07:10;-0.10;99.90
76787;DHT22;65739;51.482;5.702;2022-12-18T17:09:36;-0.10;99.90
76787;DHT22;65739;51.482;5.702;2022-12-18T17:12:02;-0.10;99.90
76787;DHT22;65739;51.482;5.702;2022-12-18T17:14:28;-0.10;99.90
76787;DHT22;65739;51.482;5.702;2022-12-18T17:16:54;-0.10;99.90
76787;DHT22;65739;51.482;5.702;2022-12-18T17:19:22;-0.10;99.90
76787;DHT22;65739;51.482;5.702;2022-12-18T17:21:54;-0.10;99.90
76787;DHT22;65739;51.482;5.702;2022-12-18T17:24:23;-0.10;99.90
76787;DHT22;65739;51.482;5.702;2022-12-18T17:27:02;-0.10;99.90
76787;DHT22;65739;51.482;5.702;2022-12-18T17:29:28;-0.10;99.90
76787;DHT22;65739;51.482;5.702;2022-12-18T17:32:05;-0.10;99.90
76787;DHT22;65739;51.482;5.702;2022-12-18T17:34:35;0.00;99.90
76787;DHT22;65739;51.482;5.702;2022-12-18T17:37:02;0.00;99.90
76787;DHT22;65739;51.482;5.702;2022-12-18T17:39:35;0.00;99.90
76787;DHT22;65739;51.482;5.702;2022-12-18T17:42:10;-0.10;99.90
76787;DHT22;65739;51.482;5.702;2022-12-18T17:44:46;0.00;99.90
76787;DHT22;65739;51.482;5.702;2022-12-18T17:47:13;0.00;99.90
76787;DHT22;65739;51.482;5.702;2022-12-18T17:49:41;0.00;99.90
76787;DHT22;65739;51.482;5.702;2022-12-18T17:52:14;0.00;99.90
76787;DHT22;65739;51.482;5.702;2022-12-18T17:54:49;0.00;99.90
76787;DHT22;65739;51.482;5.702;2022-12-18T17:57:28;0.00;99.90
76787;DHT22;65739;51.482;5.702;2022-12-18T18:00:15;0.00;99.90
76787;DHT22;65739;51.482;5.702;2022-12-18T18:02:49;0.00;99.90
76787;DHT22;65739;51.482;5.702;2022-12-18T18:05:51;0.00;99.90
76787;DHT22;65739;51.482;5.702;2022-12-18T18:08:30;0.00;99.90
76787;DHT22;65739;51.482;5.702;2022-12-18T18:11:23;0.00;99.90